Time;durP1;ratioP1;P1;durP2;ratioP2;P2;SDS_P1;SDS_P2;PMS_P1;PMS_P2;Temp;Humidity;BMP_temperature;BMP_pressure;BME280_temperature;BME280_humidity;BME280_pressure;Samples;Min_cycle;Max_cycle;Signal;HPM_P1;HPM_P2
2022/06/29 00:00:15;;;;;;;;;;;21.70;98.00;;;;;;5092486;28;19928;-74
2022/06/29 00:02:43;;;;;;;;;;;21.70;98.10;;;;;;5095645;28;19924;-74
2022/06/29 00:05:11;;;;;;;;;;;21.80;98.20;;;;;;5096900;28;20303;-74
2022/06/29 00:07:38;;;;;;;;;;;21.70;98.50;;;;;;5096723;28;20457;-74
2022/06/29 00:10:06;;;;;;;;;;;21.70;98.50;;;;;;5096142;28;19924;-74
2022/06/29 00:12:33;;;;;;;;;;;21.70;98.40;;;;;;5096218;28;19924;-73
2022/06/29 00:15:02;;;;;;;;;;;21.60;98.60;;;;;;5094492;28;19954;-74
2022/06/29 00:17:31;;;;;;;;;;;21.50;98.80;;;;;;5094423;28;20342;-72
2022/06/29 00:19:59;;;;;;;;;;;21.70;98.60;;;;;;5093634;28;19931;-74
2022/06/29 00:22:26;;;;;;;;;;;21.80;98.50;;;;;;5094626;28;19927;-74
2022/06/29 00:24:53;;;;;;;;;;;21.80;98.60;;;;;;5095549;28;20015;-74
2022/06/29 00:27:21;;;;;;;;;;;21.50;98.60;;;;;;5095286;28;20411;-74
2022/06/29 00:29:49;;;;;;;;;;;21.40;98.70;;;;;;5093915;28;19925;-74
2022/06/29 00:32:15;;;;;;;;;;;21.50;98.60;;;;;;5093873;28;20364;-73
2022/06/29 00:34:44;;;;;;;;;;;21.50;98.50;;;;;;5093104;28;19924;-72
2022/06/29 00:37:11;;;;;;;;;;;21.50;98.50;;;;;;5092045;28;19924;-71
2022/06/29 00:39:38;;;;;;;;;;;21.60;98.70;;;;;;5091839;28;19985;-70
2022/06/29 00:42:05;;;;;;;;;;;21.50;98.70;;;;;;5092067;28;20295;-71
2022/06/29 00:44:32;;;;;;;;;;;21.30;99.20;;;;;;5092130;28;19924;-73
2022/06/29 00:47:00;;;;;;;;;;;21.20;99.00;;;;;;5091641;28;19932;-73
2022/06/29 00:49:27;;;;;;;;;;;21.20;99.20;;;;;;5092132;28;19924;-72
2022/06/29 00:52:01;;;;;;;;;;;21.20;99.20;;;;;;5091796;28;19928;-71
2022/06/29 00:54:30;;;;;;;;;;;21.20;99.20;;;;;;5091640;28;20307;-71
2022/06/29 00:56:57;;;;;;;;;;;21.40;99.10;;;;;;5091792;28;19924;-72
2022/06/29 00:59:24;;;;;;;;;;;21.20;99.40;;;;;;5092055;28;19951;-71
2022/06/29 01:01:50;;;;;;;;;;;21.20;99.10;;;;;;5091686;28;19971;-72
2022/06/29 01:04:17;;;;;;;;;;;21.10;99.50;;;;;;5091706;28;19984;-72
2022/06/29 01:06:44;;;;;;;;;;;21.10;99.50;;;;;;5091370;28;19924;-71
2022/06/29 01:09:13;;;;;;;;;;;21.20;99.40;;;;;;5093875;28;20002;-72
2022/06/29 01:11:40;;;;;;;;;;;21.20;99.70;;;;;;5095692;28;20404;-72
2022/06/29 01:14:06;;;;;;;;;;;21.10;99.60;;;;;;5095414;28;19982;-71
2022/06/29 01:16:33;;;;;;;;;;;21.10;99.50;;;;;;5095373;28;19924;-71
2022/06/29 01:19:00;;;;;;;;;;;21.00;99.60;;;;;;5095218;28;19969;-71
2022/06/29 01:21:28;;;;;;;;;;;21.20;99.80;;;;;;5095467;28;20396;-71
2022/06/29 01:23:57;;;;;;;;;;;21.20;99.70;;;;;;5095122;28;19924;-71
2022/06/29 01:26:23;;;;;;;;;;;21.20;99.70;;;;;;5095149;28;20294;-72
2022/06/29 01:28:50;;;;;;;;;;;21.20;99.80;;;;;;5095315;28;20029;-71
2022/06/29 01:31:18;;;;;;;;;;;21.10;99.90;;;;;;5095173;28;19931;-72
2022/06/29 01:33:45;;;;;;;;;;;21.10;99.90;;;;;;5094951;28;20433;-72
2022/06/29 01:36:12;;;;;;;;;;;21.30;99.90;;;;;;5094576;28;20290;-72
2022/06/29 01:38:40;;;;;;;;;;;21.30;99.80;;;;;;5095180;28;19974;-72
2022/06/29 01:41:10;;;;;;;;;;;21.20;99.90;;;;;;5095368;28;19924;-71
2022/06/29 01:43:37;;;;;;;;;;;21.20;99.90;;;;;;5095200;28;19932;-71
2022/06/29 01:46:04;;;;;;;;;;;21.10;99.90;;;;;;5094609;28;19924;-71
2022/06/29 01:48:30;;;;;;;;;;;21.20;99.90;;;;;;5094729;28;19931;-71
2022/06/29 01:50:57;;;;;;;;;;;21.40;99.90;;;;;;5094788;28;20040;-71
2022/06/29 01:53:24;;;;;;;;;;;21.20;99.90;;;;;;5094637;28;19928;-71
2022/06/29 01:55:51;;;;;;;;;;;21.20;99.90;;;;;;5094440;28;19946;-72
2022/06/29 01:58:19;;;;;;;;;;;21.30;99.90;;;;;;5094634;28;19928;-72
2022/06/29 02:00:46;;;;;;;;;;;21.30;99.90;;;;;;5094563;28;19974;-72
2022/06/29 02:03:13;;;;;;;;;;;21.20;99.90;;;;;;5094471;28;19928;-71
2022/06/29 02:05:40;;;;;;;;;;;21.00;99.90;;;;;;5094296;28;20277;-71
2022/06/29 02:08:07;;;;;;;;;;;21.10;99.90;;;;;;5094774;28;19924;-71
2022/06/29 02:10:34;;;;;;;;;;;21.10;99.90;;;;;;5094647;28;19931;-72
2022/06/29 02:13:01;;;;;;;;;;;20.90;99.90;;;;;;5094356;28;20330;-71
2022/06/29 02:15:29;;;;;;;;;;;21.00;99.90;;;;;;5093940;28;19935;-72
2022/06/29 02:17:56;;;;;;;;;;;20.90;99.90;;;;;;5094496;28;19928;-72
2022/06/29 02:20:23;;;;;;;;;;;20.80;99.90;;;;;;5093965;28;19924;-72
2022/06/29 02:22:49;;;;;;;;;;;20.70;99.90;;;;;;5094467;28;20284;-71
2022/06/29 02:25:16;;;;;;;;;;;20.80;99.90;;;;;;5094093;28;19928;-72
2022/06/29 02:27:45;;;;;;;;;;;20.90;99.90;;;;;;5094150;28;20269;-72
2022/06/29 02:30:13;;;;;;;;;;;20.80;99.90;;;;;;5093968;28;19977;-71
2022/06/29 02:35:25;;;;;;;;;;;20.70;99.90;;;;;;5094190;28;19979;-72
2022/06/29 02:37:52;;;;;;;;;;;20.50;99.90;;;;;;5093946;28;19977;-72
2022/06/29 02:40:19;;;;;;;;;;;20.50;99.90;;;;;;5093775;28;20345;-73
2022/06/29 02:42:45;;;;;;;;;;;20.50;99.90;;;;;;5093842;28;19924;-72
2022/06/29 02:45:12;;;;;;;;;;;20.60;99.90;;;;;;5093621;28;19990;-71
2022/06/29 02:47:40;;;;;;;;;;;20.60;99.90;;;;;;5093941;28;19924;-72
2022/06/29 02:50:08;;;;;;;;;;;20.60;99.90;;;;;;5094141;28;19953;-71
2022/06/29 02:52:34;;;;;;;;;;;20.50;99.90;;;;;;5093600;28;19924;-72
2022/06/29 02:55:01;;;;;;;;;;;20.50;99.90;;;;;;5093264;28;19934;-71
2022/06/29 02:57:28;;;;;;;;;;;20.60;99.90;;;;;;5093373;28;20330;-72
2022/06/29 02:59:55;;;;;;;;;;;20.50;99.90;;;;;;5093484;28;19970;-72
2022/06/29 03:02:22;;;;;;;;;;;20.50;99.90;;;;;;5093175;28;19931;-72
2022/06/29 03:04:50;;;;;;;;;;;20.40;99.90;;;;;;5093133;28;19939;-72
2022/06/29 03:07:17;;;;;;;;;;;20.50;99.90;;;;;;5093248;28;19928;-71
2022/06/29 03:09:44;;;;;;;;;;;20.40;99.90;;;;;;5093496;28;19929;-72
2022/06/29 03:12:10;;;;;;;;;;;20.30;99.90;;;;;;5093046;28;19924;-72
2022/06/29 03:14:38;;;;;;;;;;;20.30;99.90;;;;;;5093260;28;19977;-73
2022/06/29 03:17:04;;;;;;;;;;;20.40;99.90;;;;;;5093255;28;19924;-72
2022/06/29 03:19:31;;;;;;;;;;;20.50;99.90;;;;;;5093321;28;19924;-71
2022/06/29 03:21:59;;;;;;;;;;;20.40;99.90;;;;;;5092592;28;19924;-71
2022/06/29 03:24:26;;;;;;;;;;;20.30;99.90;;;;;;5092853;28;20392;-71
2022/06/29 03:26:53;;;;;;;;;;;20.50;99.90;;;;;;5092935;28;19931;-71
2022/06/29 03:29:20;;;;;;;;;;;20.40;99.90;;;;;;5092894;28;19931;-72
2022/06/29 03:31:47;;;;;;;;;;;20.50;99.90;;;;;;5092128;28;19973;-72
2022/06/29 03:34:14;;;;;;;;;;;20.50;99.90;;;;;;5092789;28;19924;-72
2022/06/29 03:36:41;;;;;;;;;;;20.50;99.90;;;;;;5092815;28;19976;-73
2022/06/29 03:39:09;;;;;;;;;;;20.50;99.90;;;;;;5092918;28;19932;-72
2022/06/29 03:41:36;;;;;;;;;;;20.50;99.90;;;;;;5092739;28;19993;-71
2022/06/29 03:44:03;;;;;;;;;;;20.40;99.90;;;;;;5092533;28;19969;-72
2022/06/29 03:46:30;;;;;;;;;;;20.20;99.90;;;;;;5092320;28;19931;-70
2022/06/29 03:48:57;;;;;;;;;;;20.20;99.90;;;;;;5092813;28;19935;-71
2022/06/29 03:51:24;;;;;;;;;;;20.20;99.90;;;;;;5093196;28;19931;-71
2022/06/29 03:53:52;;;;;;;;;;;20.20;99.90;;;;;;5092467;28;20004;-70
2022/06/29 03:56:20;;;;;;;;;;;20.20;99.90;;;;;;5092220;28;19931;-70
2022/06/29 03:58:47;;;;;;;;;;;20.20;99.90;;;;;;5092558;28;19928;-71
2022/06/29 04:01:14;;;;;;;;;;;20.20;99.90;;;;;;5092880;28;20364;-71
2022/06/29 04:03:41;;;;;;;;;;;20.20;99.90;;;;;;5092390;28;19977;-71
2022/06/29 04:06:08;;;;;;;;;;;20.40;99.90;;;;;;5092219;28;20283;-72
2022/06/29 04:08:36;;;;;;;;;;;20.30;99.90;;;;;;5092298;28;19931;-72
2022/06/29 04:11:03;;;;;;;;;;;20.40;99.90;;;;;;5092963;28;19924;-72
2022/06/29 04:13:31;;;;;;;;;;;20.30;99.90;;;;;;5092413;28;19925;-72
2022/06/29 04:15:58;;;;;;;;;;;20.30;99.90;;;;;;5091998;28;19924;-72
2022/06/29 04:18:25;;;;;;;;;;;20.50;99.90;;;;;;5092068;28;19928;-72
2022/06/29 04:21:07;;;;;;;;;;;20.50;99.90;;;;;;5092333;28;19924;-70
2022/06/29 04:23:34;;;;;;;;;;;20.50;99.90;;;;;;5092232;28;19924;-71
2022/06/29 04:26:01;;;;;;;;;;;20.50;99.90;;;;;;5091972;28;20380;-73
2022/06/29 04:28:27;;;;;;;;;;;20.60;99.90;;;;;;5092226;28;19931;-72
2022/06/29 04:30:56;;;;;;;;;;;20.50;99.90;;;;;;5091949;28;20421;-71
2022/06/29 04:33:23;;;;;;;;;;;20.40;99.90;;;;;;5092192;28;19931;-70
2022/06/29 04:35:49;;;;;;;;;;;20.60;99.90;;;;;;5091990;28;20311;-71
2022/06/29 04:38:17;;;;;;;;;;;20.70;99.90;;;;;;5091883;28;20388;-71
2022/06/29 04:40:44;;;;;;;;;;;20.80;99.90;;;;;;5091935;28;19928;-70
2022/06/29 04:43:11;;;;;;;;;;;20.80;99.90;;;;;;5093975;28;19970;-72
2022/06/29 04:48:29;;;;;;;;;;;21.00;99.90;;;;;;5075229;28;19920;-72
2022/06/29 04:50:56;;;;;;;;;;;21.10;99.90;;;;;;5096232;28;19932;-72
2022/06/29 04:53:23;;;;;;;;;;;21.00;99.90;;;;;;5095927;28;19928;-72
2022/06/29 04:55:49;;;;;;;;;;;21.00;99.90;;;;;;5095376;28;19924;-73
2022/06/29 04:58:16;;;;;;;;;;;21.10;99.90;;;;;;5095692;28;19927;-71
2022/06/29 05:00:43;;;;;;;;;;;21.20;99.90;;;;;;5095769;28;20341;-71
2022/06/29 05:03:10;;;;;;;;;;;21.10;99.90;;;;;;5095414;28;19928;-71
2022/06/29 05:05:38;;;;;;;;;;;21.20;99.90;;;;;;5095381;28;19928;-71
2022/06/29 05:08:05;;;;;;;;;;;21.20;99.90;;;;;;5095648;28;20388;-71
2022/06/29 05:10:32;;;;;;;;;;;21.50;99.90;;;;;;5095526;28;20339;-71
2022/06/29 05:12:59;;;;;;;;;;;21.70;99.90;;;;;;5095488;28;19931;-71
2022/06/29 05:15:26;;;;;;;;;;;21.80;99.90;;;;;;5095555;28;20384;-72
2022/06/29 05:17:52;;;;;;;;;;;21.80;99.90;;;;;;5095448;28;19954;-72
2022/06/29 05:20:20;;;;;;;;;;;22.00;99.90;;;;;;5095593;28;20392;-72
2022/06/29 05:22:48;;;;;;;;;;;22.00;99.90;;;;;;5094992;28;20213;-72
2022/06/29 05:25:15;;;;;;;;;;;22.20;99.90;;;;;;5095234;28;20177;-72
2022/06/29 05:27:42;;;;;;;;;;;22.30;99.90;;;;;;5095222;28;19924;-72
2022/06/29 05:30:09;;;;;;;;;;;22.20;99.90;;;;;;5095568;28;19924;-72
2022/06/29 05:32:36;;;;;;;;;;;22.40;99.90;;;;;;5095271;28;19977;-73
2022/06/29 05:35:03;;;;;;;;;;;22.40;99.90;;;;;;5095397;28;20031;-72
2022/06/29 05:37:30;;;;;;;;;;;22.40;99.90;;;;;;5095018;28;19924;-71
2022/06/29 05:39:58;;;;;;;;;;;22.50;99.90;;;;;;5094748;28;19977;-71
2022/06/29 05:42:25;;;;;;;;;;;22.70;99.90;;;;;;5094909;28;19924;-71
2022/06/29 05:44:52;;;;;;;;;;;22.70;99.90;;;;;;5094699;28;19924;-71
2022/06/29 05:47:19;;;;;;;;;;;22.70;99.90;;;;;;5094914;28;19924;-72
2022/06/29 05:49:46;;;;;;;;;;;22.90;99.90;;;;;;5094870;28;20384;-71
2022/06/29 05:52:13;;;;;;;;;;;22.70;99.90;;;;;;5094425;28;19931;-71
2022/06/29 05:54:39;;;;;;;;;;;23.00;99.90;;;;;;5107639;22;19924;-73
2022/06/29 05:57:08;;;;;;;;;;;23.00;99.90;;;;;;5094542;28;20326;-73
2022/06/29 05:59:34;;;;;;;;;;;23.30;99.90;;;;;;5094686;28;19924;-73
2022/06/29 06:02:01;;;;;;;;;;;23.40;99.90;;;;;;5094422;28;19985;-73
2022/06/29 06:04:28;;;;;;;;;;;23.70;99.90;;;;;;5094362;28;19939;-73
2022/06/29 06:06:55;;;;;;;;;;;23.80;99.90;;;;;;5094522;28;19924;-73
2022/06/29 06:09:26;;;;;;;;;;;23.70;99.90;;;;;;5094419;28;20387;-73
2022/06/29 06:11:54;;;;;;;;;;;23.80;99.90;;;;;;5094615;28;19924;-74
2022/06/29 06:14:22;;;;;;;;;;;23.80;99.90;;;;;;5094342;28;19930;-73
2022/06/29 06:16:49;;;;;;;;;;;23.90;99.90;;;;;;5094168;28;19976;-73
2022/06/29 06:19:16;;;;;;;;;;;23.70;99.90;;;;;;5094449;28;19931;-73
2022/06/29 06:21:43;;;;;;;;;;;23.80;99.90;;;;;;5094392;28;19924;-73
2022/06/29 06:24:09;;;;;;;;;;;24.00;99.90;;;;;;5094114;28;20699;-73
2022/06/29 06:26:37;;;;;;;;;;;24.20;99.90;;;;;;5093913;28;20406;-73
2022/06/29 06:29:03;;;;;;;;;;;24.40;99.90;;;;;;5093381;28;19989;-73
2022/06/29 06:31:32;;;;;;;;;;;24.30;99.90;;;;;;5087349;28;19935;-73
2022/06/29 06:33:58;;;;;;;;;;;24.60;99.90;;;;;;5087622;28;19985;-74
2022/06/29 06:36:25;;;;;;;;;;;24.40;99.90;;;;;;5082832;28;19928;-73
2022/06/29 06:38:52;;;;;;;;;;;24.30;99.90;;;;;;5078884;28;19978;-73
2022/06/29 06:41:25;;;;;;;;;;;24.30;99.90;;;;;;5086014;28;19935;-73
